createdAt,value
2022-08-03T00:01:25.998Z,1.70
2022-08-03T00:03:53.014Z,1.80
2022-08-03T00:06:19.797Z,1.98
2022-08-03T00:08:47.391Z,1.60
2022-08-03T00:11:14.251Z,1.75
2022-08-03T00:13:41.088Z,1.70
2022-08-03T00:16:08.102Z,1.90
2022-08-03T00:18:34.981Z,1.70
2022-08-03T00:21:03.266Z,1.83
2022-08-03T00:23:50.896Z,1.70
2022-08-03T00:26:17.101Z,1.67
2022-08-03T00:28:43.935Z,1.90
2022-08-03T00:31:13.580Z,1.85
2022-08-03T00:33:59.751Z,1.80
2022-08-03T00:36:28.353Z,1.70
2022-08-03T00:38:56.497Z,1.85
2022-08-03T00:41:23.400Z,2.10
2022-08-03T00:43:50.848Z,2.12
2022-08-03T00:46:21.773Z,1.80
2022-08-03T00:48:50.283Z,2.00
2022-08-03T00:51:18.164Z,2.00
2022-08-03T00:53:46.108Z,2.00
2022-08-03T00:56:15.123Z,1.90
2022-08-03T00:58:44.291Z,1.85
2022-08-03T01:01:12.571Z,2.20
2022-08-03T01:03:39.867Z,1.85
2022-08-03T01:06:19.249Z,1.93
2022-08-03T01:09:06.806Z,2.20
2022-08-03T01:12:03.142Z,2.20
2022-08-03T01:14:38.713Z,2.33
2022-08-03T01:17:13.686Z,1.95
2022-08-03T01:19:41.039Z,2.07
2022-08-03T01:22:18.225Z,2.35
2022-08-03T01:25:14.132Z,2.20
2022-08-03T01:28:30.143Z,2.20
2022-08-03T01:31:02.615Z,2.30
2022-08-03T01:33:39.492Z,2.10
2022-08-03T01:36:14.288Z,2.53
2022-08-03T01:38:47.644Z,2.50
2022-08-03T01:41:20.423Z,2.53
2022-08-03T01:44:26.406Z,2.40
2022-08-03T01:46:40.582Z,3.00
2022-08-03T01:49:18.385Z,2.60
2022-08-03T01:52:03.057Z,2.45
2022-08-03T01:54:43.364Z,3.00
2022-08-03T01:57:11.929Z,2.67
2022-08-03T01:59:42.450Z,2.60
2022-08-03T02:02:15.623Z,2.10
2022-08-03T02:05:01.766Z,2.10
2022-08-03T02:07:30.845Z,2.40
2022-08-03T02:10:00.700Z,2.33
2022-08-03T02:12:31.581Z,2.50
2022-08-03T02:15:00.947Z,2.60
2022-08-03T02:17:40.113Z,2.08
2022-08-03T02:20:13.027Z,2.28
2022-08-03T02:22:42.588Z,2.20
2022-08-03T02:25:12.018Z,2.10
2022-08-03T02:28:15.707Z,2.20
2022-08-03T02:30:51.883Z,2.40
2022-08-03T02:33:33.312Z,2.60
2022-08-03T02:36:02.974Z,2.72
2022-08-03T02:38:38.207Z,2.90
2022-08-03T02:41:13.822Z,2.40
2022-08-03T02:44:06.639Z,2.30
2022-08-03T02:46:38.825Z,2.33
2022-08-03T02:49:50.776Z,2.08
2022-08-03T02:51:58.397Z,2.60
2022-08-03T02:54:28.596Z,2.65
2022-08-03T02:56:59.271Z,2.50
2022-08-03T02:59:31.429Z,3.05
2022-08-03T03:02:01.835Z,2.60
2022-08-03T03:04:32.987Z,2.83
2022-08-03T03:07:04.454Z,3.00
2022-08-03T03:09:41.658Z,2.90
2022-08-03T03:12:13.584Z,2.83
2022-08-03T03:14:41.029Z,2.70
2022-08-03T03:17:12.353Z,2.67
2022-08-03T03:19:40.937Z,2.35
2022-08-03T03:22:08.653Z,2.80
2022-08-03T03:24:36.453Z,2.72
2022-08-03T03:27:04.072Z,3.15
2022-08-03T03:29:32.750Z,3.03
2022-08-03T03:32:09.263Z,2.80
2022-08-03T03:34:37.441Z,3.15
2022-08-03T03:37:05.244Z,2.92
2022-08-03T03:39:32.404Z,2.90
2022-08-03T03:42:00.978Z,3.10
2022-08-03T03:44:31.140Z,3.40
2022-08-03T03:46:58.790Z,2.90
2022-08-03T03:49:27.104Z,3.08
2022-08-03T03:51:55.245Z,3.22
2022-08-03T03:54:22.637Z,3.37
2022-08-03T03:56:52.470Z,2.97
2022-08-03T03:59:19.394Z,3.25
2022-08-03T04:01:46.480Z,3.28
2022-08-03T04:04:31.991Z,2.92
2022-08-03T04:07:17.687Z,3.37
2022-08-03T04:10:14.212Z,3.33
2022-08-03T04:12:50.487Z,3.10
2022-08-03T04:15:23.003Z,3.37
2022-08-03T04:17:53.516Z,3.20
2022-08-03T04:20:22.982Z,3.10
2022-08-03T04:22:52.975Z,3.00
2022-08-03T04:25:23.162Z,3.53
2022-08-03T04:28:08.076Z,3.97
2022-08-03T04:30:47.529Z,3.65
2022-08-03T04:33:16.372Z,3.30
2022-08-03T04:36:01.322Z,3.75
2022-08-03T04:38:32.972Z,3.83
2022-08-03T04:41:01.572Z,4.35
2022-08-03T04:43:32.826Z,4.18
2022-08-03T04:46:00.290Z,4.33
2022-08-03T04:48:28.375Z,4.43
2022-08-03T04:50:55.417Z,3.85
2022-08-03T04:53:22.633Z,4.25
2022-08-03T04:55:50.243Z,4.18
2022-08-03T04:58:17.599Z,3.93
2022-08-03T05:00:45.703Z,4.50
2022-08-03T05:03:23.612Z,4.30
2022-08-03T05:06:02.004Z,4.00
2022-08-03T05:08:46.053Z,4.22
2022-08-03T05:11:17.315Z,4.00
2022-08-03T05:13:45.244Z,4.40
2022-08-03T05:16:13.943Z,4.35
2022-08-03T05:18:42.130Z,4.32
2022-08-03T05:21:16.946Z,4.47
2022-08-03T05:23:45.065Z,3.93
2022-08-03T05:26:12.176Z,4.20
2022-08-03T05:28:39.976Z,4.30
2022-08-03T05:31:18.234Z,4.25
2022-08-03T05:33:45.128Z,4.22
2022-08-03T05:36:12.697Z,4.47
2022-08-03T05:38:39.743Z,4.72
2022-08-03T05:41:22.169Z,4.55
2022-08-03T05:43:52.659Z,4.25
2022-08-03T05:46:20.697Z,4.53
2022-08-03T05:48:48.128Z,4.50
2022-08-03T05:51:15.016Z,4.12
2022-08-03T05:53:43.372Z,4.57
2022-08-03T05:56:15.036Z,4.07
2022-08-03T05:58:47.468Z,4.43
2022-08-03T06:01:18.380Z,4.13
2022-08-03T06:03:46.370Z,3.60
2022-08-03T06:06:13.284Z,4.50
2022-08-03T06:08:41.277Z,4.18
2022-08-03T06:11:09.090Z,4.40
2022-08-03T06:13:36.638Z,4.60
2022-08-03T06:16:03.912Z,4.60
2022-08-03T06:18:31.036Z,4.00
2022-08-03T06:20:58.118Z,4.30
2022-08-03T06:23:54.517Z,5.15
2022-08-03T06:26:27.569Z,4.90
2022-08-03T06:28:54.978Z,4.62
2022-08-03T06:31:32.872Z,5.22
2022-08-03T06:34:34.145Z,4.72
2022-08-03T06:36:52.905Z,4.90
2022-08-03T06:39:23.539Z,4.97
2022-08-03T06:41:51.123Z,5.40
2022-08-03T06:44:18.008Z,4.40
2022-08-03T06:46:44.950Z,4.20
2022-08-03T06:49:11.932Z,4.60
2022-08-03T06:52:37.461Z,4.80
2022-08-03T06:54:25.762Z,4.75
2022-08-03T06:56:52.698Z,5.45
2022-08-03T07:00:10.184Z,4.75
2022-08-03T07:02:07.538Z,4.78
2022-08-03T07:04:34.392Z,5.47
2022-08-03T07:07:01.725Z,4.80
2022-08-03T07:09:28.846Z,4.87
2022-08-03T07:11:55.819Z,4.80
2022-08-03T07:14:23.002Z,5.03
2022-08-03T07:16:49.867Z,4.97
2022-08-03T07:19:17.406Z,4.68
2022-08-03T07:21:45.480Z,4.78
2022-08-03T07:24:12.315Z,4.60
2022-08-03T07:26:39.265Z,5.03
2022-08-03T07:29:10.911Z,4.63
2022-08-03T07:31:42.309Z,4.70
2022-08-03T07:34:09.359Z,5.05
2022-08-03T07:36:36.234Z,4.68
2022-08-03T07:39:15.998Z,5.10
2022-08-03T07:41:46.046Z,4.63
2022-08-03T07:44:13.345Z,4.87
2022-08-03T07:46:40.225Z,4.78
2022-08-03T07:49:07.286Z,5.03
2022-08-03T07:51:34.448Z,4.95
2022-08-03T07:54:01.558Z,4.50
2022-08-03T07:56:29.096Z,4.75
2022-08-03T07:58:56.660Z,4.87
2022-08-03T08:01:23.799Z,4.82
2022-08-03T08:03:53.522Z,4.97
2022-08-03T08:06:21.705Z,5.00
2022-08-03T08:08:48.801Z,5.20
2022-08-03T08:11:15.851Z,4.95
2022-08-03T08:13:42.695Z,5.10
2022-08-03T08:16:09.632Z,5.57
2022-08-03T08:18:36.478Z,5.07
2022-08-03T08:21:03.531Z,5.70
2022-08-03T08:23:42.479Z,5.03
2022-08-03T08:26:11.353Z,5.30
2022-08-03T08:28:38.528Z,4.82
2022-08-03T08:31:05.516Z,4.87
2022-08-03T08:34:02.798Z,4.80
2022-08-03T08:36:21.810Z,4.97
2022-08-03T08:38:48.700Z,5.15
2022-08-03T08:41:16.262Z,4.97
2022-08-03T08:43:43.528Z,4.57
2022-08-03T08:46:23.496Z,4.72
2022-08-03T08:48:51.877Z,4.22
2022-08-03T08:51:20.732Z,4.62
2022-08-03T08:53:53.839Z,4.25
2022-08-03T08:56:25.473Z,4.80
2022-08-03T08:58:56.976Z,5.28
2022-08-03T09:01:23.881Z,4.25
2022-08-03T09:03:51.417Z,4.85
2022-08-03T09:06:18.373Z,4.50
2022-08-03T09:08:45.209Z,4.70
2022-08-03T09:11:12.806Z,4.18
2022-08-03T09:13:39.991Z,4.30
2022-08-03T09:16:21.738Z,4.30
2022-08-03T09:18:52.200Z,4.28
2022-08-03T09:21:32.238Z,4.30
2022-08-03T09:24:03.220Z,3.97
2022-08-03T09:26:31.799Z,3.90
2022-08-03T09:29:10.871Z,4.05
2022-08-03T09:31:46.024Z,4.65
2022-08-03T09:34:17.452Z,4.03
2022-08-03T09:36:50.563Z,4.85
2022-08-03T09:39:19.520Z,4.82
2022-08-03T09:42:07.977Z,3.83
2022-08-03T09:44:45.056Z,4.03
2022-08-03T09:47:14.514Z,4.17
2022-08-03T09:49:56.123Z,3.87
2022-08-03T09:52:38.179Z,4.32
2022-08-03T09:56:30.500Z,3.90
2022-08-03T09:58:07.201Z,4.18
2022-08-03T10:00:54.192Z,3.93
2022-08-03T10:03:21.722Z,3.80
2022-08-03T10:05:48.605Z,3.35
2022-08-03T10:08:17.288Z,3.78
2022-08-03T10:10:46.162Z,4.20
2022-08-03T10:13:20.139Z,4.13
2022-08-03T10:16:21.712Z,5.50
2022-08-03T10:18:34.321Z,4.32
2022-08-03T10:21:07.825Z,4.32
2022-08-03T10:23:35.966Z,3.70
2022-08-03T10:26:04.894Z,3.97
2022-08-03T10:28:42.805Z,3.72
2022-08-03T10:31:13.149Z,3.83
2022-08-03T10:33:50.277Z,4.35
2022-08-03T10:36:23.948Z,5.55
2022-08-03T10:38:53.691Z,3.97
2022-08-03T10:41:23.395Z,4.03
2022-08-03T10:44:04.150Z,4.07
2022-08-03T10:46:31.823Z,4.25
2022-08-03T10:48:59.921Z,4.90
2022-08-03T10:51:32.078Z,4.43
2022-08-03T10:54:01.782Z,4.18
2022-08-03T10:56:50.837Z,4.30
2022-08-03T10:59:46.114Z,3.80
2022-08-03T11:02:14.392Z,4.10
2022-08-03T11:04:42.849Z,4.20
2022-08-03T11:07:25.744Z,3.78
2022-08-03T11:09:55.871Z,4.00
2022-08-03T11:12:32.158Z,3.97
2022-08-03T11:15:06.663Z,4.15
2022-08-03T11:17:46.647Z,4.10
2022-08-03T11:20:47.339Z,4.20
2022-08-03T11:23:15.778Z,4.07
2022-08-03T11:26:17.488Z,3.92
2022-08-03T11:28:46.538Z,4.37
2022-08-03T11:31:47.223Z,4.30
2022-08-03T11:34:11.223Z,4.32
2022-08-03T11:37:16.054Z,4.57
2022-08-03T11:39:46.744Z,3.95
2022-08-03T11:42:22.907Z,4.50
2022-08-03T11:45:00.331Z,4.77
2022-08-03T11:47:30.061Z,4.35
2022-08-03T11:50:00.689Z,3.80
2022-08-03T11:52:33.971Z,3.97
2022-08-03T11:55:01.286Z,3.87
2022-08-03T11:59:10.876Z,3.87
2022-08-03T12:00:28.634Z,3.83
2022-08-03T12:03:06.860Z,4.47
2022-08-03T12:05:48.083Z,3.33
2022-08-03T12:08:31.188Z,2.80
2022-08-03T12:11:01.287Z,3.30
2022-08-03T12:14:44.122Z,2.78
2022-08-03T12:16:25.817Z,2.40
2022-08-03T12:19:04.916Z,1.80
2022-08-03T12:21:31.859Z,2.55
2022-08-03T12:24:04.056Z,2.30
2022-08-03T12:26:43.214Z,2.17
2022-08-03T12:29:21.072Z,2.53
2022-08-03T12:31:49.883Z,3.10
2022-08-03T12:34:16.903Z,3.28
2022-08-03T12:36:57.012Z,3.80
2022-08-03T12:39:26.411Z,3.83
2022-08-03T12:41:54.906Z,3.30
2022-08-03T12:44:35.211Z,3.83
2022-08-03T12:47:03.647Z,2.90
2022-08-03T12:49:48.367Z,3.13
2022-08-03T12:52:16.255Z,3.30
2022-08-03T12:54:53.904Z,3.30
2022-08-03T12:57:21.197Z,3.55
2022-08-03T12:59:55.977Z,3.45
2022-08-03T13:02:25.431Z,3.40
2022-08-03T13:04:53.988Z,3.28
2022-08-03T13:07:22.195Z,3.72
2022-08-03T13:09:56.073Z,3.62
2022-08-03T13:12:25.653Z,3.87
2022-08-03T13:14:55.680Z,3.80
2022-08-03T13:17:22.869Z,4.50
2022-08-03T13:19:50.992Z,3.72
2022-08-03T13:22:20.096Z,3.45
2022-08-03T13:24:49.035Z,4.53
2022-08-03T13:28:09.862Z,3.37
2022-08-03T13:30:07.858Z,3.53
2022-08-03T13:32:35.084Z,3.85
2022-08-03T13:35:04.927Z,4.15
2022-08-03T13:37:32.490Z,3.97
2022-08-03T13:40:02.689Z,4.23
2022-08-03T13:42:32.359Z,3.53
2022-08-03T13:45:00.597Z,3.37
2022-08-03T13:47:27.902Z,2.92
2022-08-03T13:50:01.133Z,3.40
2022-08-03T13:52:34.258Z,3.00
2022-08-03T13:55:02.385Z,2.78
2022-08-03T13:58:02.507Z,3.00
2022-08-03T14:00:27.614Z,2.78
2022-08-03T14:03:02.920Z,3.08
2022-08-03T14:05:33.001Z,3.50
2022-08-03T14:08:05.822Z,3.08
2022-08-03T14:10:37.326Z,3.22
2022-08-03T14:13:05.198Z,3.85
2022-08-03T14:15:32.240Z,3.25
2022-08-03T14:18:04.293Z,3.00
2022-08-03T14:20:37.303Z,3.45
2022-08-03T14:23:07.058Z,3.58
2022-08-03T14:25:44.180Z,3.15
2022-08-03T14:28:24.991Z,3.10
2022-08-03T14:30:53.855Z,3.67
2022-08-03T14:33:21.002Z,3.53
2022-08-03T14:35:49.099Z,3.40
2022-08-03T14:38:16.479Z,3.30
2022-08-03T14:40:43.854Z,3.65
2022-08-03T14:43:11.117Z,3.70
2022-08-03T14:45:39.346Z,3.62
2022-08-03T14:50:30.973Z,3.55
2022-08-03T14:50:55.213Z,3.03
2022-08-03T14:53:22.520Z,3.50
2022-08-03T14:55:51.589Z,3.20
2022-08-03T14:58:21.508Z,3.40
2022-08-03T15:00:50.029Z,3.58
2022-08-03T15:03:20.564Z,3.22
2022-08-03T15:05:47.741Z,3.37
2022-08-03T15:08:14.708Z,3.20
2022-08-03T15:10:44.807Z,3.10
2022-08-03T15:13:17.686Z,3.20
2022-08-03T15:15:44.663Z,3.62
2022-08-03T15:18:11.598Z,3.70
2022-08-03T15:20:45.035Z,3.20
2022-08-03T15:23:14.202Z,3.40
2022-08-03T15:26:28.086Z,3.65
2022-08-03T15:28:27.959Z,3.22
2022-08-03T15:30:54.892Z,3.42
2022-08-03T15:33:21.911Z,3.40
2022-08-03T15:35:49.881Z,3.40
2022-08-03T15:38:16.944Z,3.28
2022-08-03T15:40:44.051Z,3.35
2022-08-03T15:43:11.087Z,3.50
2022-08-03T15:45:38.071Z,3.33
2022-08-03T15:48:06.064Z,3.55
2022-08-03T15:50:33.052Z,3.62
2022-08-03T15:52:59.907Z,3.50
2022-08-03T15:55:27.311Z,3.53
2022-08-03T15:59:10.876Z,3.03
2022-08-03T16:00:42.683Z,3.20
2022-08-03T16:03:10.618Z,3.20
2022-08-03T16:05:37.576Z,3.80
2022-08-03T16:08:07.126Z,3.50
2022-08-03T16:10:37.371Z,3.70
2022-08-03T16:13:04.270Z,3.40
2022-08-03T16:15:31.121Z,3.12
2022-08-03T16:17:58.122Z,3.08
2022-08-03T16:20:30.827Z,3.15
2022-08-03T16:23:04.144Z,2.77
2022-08-03T16:25:41.935Z,2.75
2022-08-03T16:28:13.932Z,3.17
2022-08-03T16:30:42.994Z,3.28
2022-08-03T16:33:11.276Z,3.20
2022-08-03T16:35:44.372Z,3.20
2022-08-03T16:38:14.192Z,3.00
2022-08-03T16:40:45.874Z,2.90
2022-08-03T16:43:18.178Z,2.95
2022-08-03T16:45:46.868Z,3.33
2022-08-03T16:48:15.147Z,3.13
2022-08-03T16:50:42.313Z,3.20
2022-08-03T16:53:15.715Z,3.20
2022-08-03T16:55:53.463Z,3.08
2022-08-03T16:58:41.161Z,3.03
2022-08-03T17:01:24.120Z,3.00
2022-08-03T17:04:02.726Z,2.62
2022-08-03T17:06:37.172Z,3.10
2022-08-03T17:09:10.065Z,2.60
2022-08-03T17:11:46.514Z,3.20
2022-08-03T17:14:28.563Z,3.07
2022-08-03T17:17:01.072Z,3.05
2022-08-03T17:19:32.565Z,3.00
2022-08-03T17:22:10.627Z,3.10
2022-08-03T17:24:41.395Z,2.80
2022-08-03T17:28:41.728Z,3.30
2022-08-03T17:30:10.402Z,3.20
2022-08-03T17:32:42.271Z,3.40
2022-08-03T17:35:10.613Z,3.30
2022-08-03T17:37:57.947Z,2.87
2022-08-03T17:40:24.735Z,3.17
2022-08-03T17:42:52.670Z,3.12
2022-08-03T17:45:20.346Z,3.22
2022-08-03T17:47:57.077Z,2.92
2022-08-03T17:50:37.081Z,3.15
2022-08-03T17:53:15.103Z,3.10
2022-08-03T17:55:52.053Z,3.30
2022-08-03T17:58:55.039Z,3.10
2022-08-03T18:02:26.519Z,3.12
2022-08-03T18:05:15.955Z,3.10
2022-08-03T18:07:59.532Z,2.80
2022-08-03T18:10:35.095Z,3.60
2022-08-03T18:13:11.240Z,3.05
2022-08-03T18:15:43.740Z,2.80
2022-08-03T18:18:14.635Z,3.05
2022-08-03T18:20:45.463Z,3.50
2022-08-03T18:23:25.318Z,3.20
2022-08-03T18:26:02.583Z,2.80
2022-08-03T18:28:32.307Z,3.30
2022-08-03T18:31:05.570Z,3.25
2022-08-03T18:34:19.088Z,3.40
2022-08-03T18:36:30.179Z,3.72
2022-08-03T18:39:02.350Z,3.53
2022-08-03T18:41:32.961Z,3.65
2022-08-03T18:44:07.923Z,3.80
2022-08-03T18:46:50.095Z,3.80
2022-08-03T18:49:39.978Z,3.95
2022-08-03T18:52:17.762Z,3.75
2022-08-03T18:55:20.243Z,4.05
2022-08-03T18:58:17.795Z,3.75
2022-08-03T19:01:59.738Z,4.50
2022-08-03T19:04:34.062Z,4.50
2022-08-03T19:07:11.061Z,4.00
2022-08-03T19:09:54.845Z,3.72
2022-08-03T19:12:37.406Z,3.70
2022-08-03T19:15:13.270Z,4.13
2022-08-03T19:17:50.087Z,3.40
2022-08-03T19:20:28.219Z,3.80
2022-08-03T19:22:56.956Z,3.50
2022-08-03T19:25:34.413Z,4.10
2022-08-03T19:28:06.109Z,3.50
2022-08-03T19:30:46.433Z,3.60
2022-08-03T19:33:21.316Z,3.90
2022-08-03T19:35:55.090Z,3.25
2022-08-03T19:38:38.463Z,3.92
2022-08-03T19:41:14.403Z,3.60
2022-08-03T19:43:57.549Z,3.37
2022-08-03T19:46:30.314Z,3.40
2022-08-03T19:49:10.579Z,2.83
2022-08-03T19:52:00.807Z,3.10
2022-08-03T19:54:53.579Z,2.97
2022-08-03T19:57:25.407Z,3.22
2022-08-03T19:59:54.901Z,2.97
2022-08-03T20:02:27.229Z,2.70
2022-08-03T20:04:57.403Z,2.87
2022-08-03T20:07:26.228Z,2.67
2022-08-03T20:09:57.065Z,2.80
2022-08-03T20:12:29.017Z,3.15
2022-08-03T20:14:58.158Z,2.97
2022-08-03T20:17:56.289Z,3.33
2022-08-03T20:20:25.812Z,3.00
2022-08-03T20:22:57.618Z,3.30
2022-08-03T20:25:48.855Z,3.30
2022-08-03T20:28:35.102Z,3.00
2022-08-03T20:31:17.693Z,2.95
2022-08-03T20:33:48.802Z,2.80
2022-08-03T20:36:18.430Z,3.22
2022-08-03T20:38:48.167Z,2.92
2022-08-03T20:41:19.089Z,3.03
2022-08-03T20:43:49.299Z,3.05
2022-08-03T20:46:30.006Z,3.07
2022-08-03T20:49:03.780Z,3.20
2022-08-03T20:51:53.317Z,2.95
2022-08-03T20:54:29.118Z,3.00
2022-08-03T20:56:58.270Z,3.55
2022-08-03T20:59:35.063Z,2.93
2022-08-03T21:02:19.768Z,2.95
2022-08-03T21:05:03.019Z,3.70
2022-08-03T21:08:04.021Z,3.03
2022-08-03T21:10:29.536Z,3.40
2022-08-03T21:13:22.687Z,3.33
2022-08-03T21:16:06.434Z,3.30
2022-08-03T21:18:50.269Z,3.42
2022-08-03T21:21:19.560Z,3.50
2022-08-03T21:23:51.293Z,3.47
2022-08-03T21:26:20.226Z,4.07
2022-08-03T21:28:52.090Z,3.92
2022-08-03T21:31:24.790Z,4.20
2022-08-03T21:33:58.145Z,3.62
2022-08-03T21:36:28.636Z,3.87
2022-08-03T21:38:58.016Z,3.57
2022-08-03T21:41:32.204Z,3.83
2022-08-03T21:44:01.003Z,3.40
2022-08-03T21:46:35.057Z,3.45
2022-08-03T21:50:04.785Z,3.87
2022-08-03T21:51:54.507Z,3.20
2022-08-03T21:54:23.935Z,3.25
2022-08-03T21:56:51.402Z,3.40
2022-08-03T21:59:20.259Z,3.55
2022-08-03T22:01:49.393Z,2.90
2022-08-03T22:04:53.600Z,3.20
2022-08-03T22:07:09.037Z,3.40
2022-08-03T22:09:36.880Z,3.00
2022-08-03T22:12:04.595Z,3.05
2022-08-03T22:14:34.627Z,2.90
2022-08-03T22:17:06.240Z,2.90
2022-08-03T22:19:33.675Z,3.20
2022-08-03T22:22:06.096Z,3.08
2022-08-03T22:24:36.550Z,3.30
2022-08-03T22:27:23.251Z,3.85
2022-08-03T22:29:52.805Z,4.47
2022-08-03T22:32:20.505Z,3.85
2022-08-03T22:34:49.761Z,3.20
2022-08-03T22:37:19.238Z,3.50
2022-08-03T22:39:46.978Z,4.00
2022-08-03T22:42:14.121Z,4.20
2022-08-03T22:44:40.965Z,4.00
2022-08-03T22:47:09.767Z,3.30
2022-08-03T22:49:37.882Z,3.70
2022-08-03T22:52:06.182Z,3.58
2022-08-03T22:54:34.066Z,3.97
2022-08-03T22:57:01.169Z,4.10
2022-08-03T22:59:38.855Z,3.62
2022-08-03T23:02:21.766Z,3.92
2022-08-03T23:04:56.640Z,3.67
2022-08-03T23:07:35.705Z,3.87
2022-08-03T23:10:09.635Z,3.80
2022-08-03T23:12:39.694Z,3.65
2022-08-03T23:15:10.060Z,4.32
2022-08-03T23:17:57.480Z,4.32
2022-08-03T23:20:26.979Z,4.20
2022-08-03T23:22:57.874Z,4.30
2022-08-03T23:25:25.302Z,4.95
2022-08-03T23:28:05.715Z,4.43
2022-08-03T23:30:37.404Z,4.25
2022-08-03T23:33:04.630Z,4.40
2022-08-03T23:36:18.787Z,4.37
2022-08-03T23:38:37.155Z,3.80
2022-08-03T23:41:05.177Z,4.68
2022-08-03T23:43:51.064Z,4.55
2022-08-03T23:46:21.738Z,4.47
2022-08-03T23:48:48.738Z,4.55
2022-08-03T23:51:37.929Z,4.20
2022-08-03T23:54:28.792Z,4.53
2022-08-03T23:57:23.058Z,4.50
